Time;durP1;ratioP1;P1;durP2;ratioP2;P2;SDS_P1;SDS_P2;PMS_P1;PMS_P2;Temp;Humidity;BMP_temperature;BMP_pressure;BME280_temperature;BME280_humidity;BME280_pressure;Samples;Min_cycle;Max_cycle;Signal;HPM_P1;HPM_P2
2022/09/04 00:02:15;;;;;;;5.90;2.25;;;;;;;18.24;56.52;100023.91;7632068;32;37065;-69
2022/09/04 00:06:37;;;;;;;4.93;2.15;;;;;;;18.35;53.98;100036.31;7629305;32;39426;-69
2022/09/04 00:11:19;;;;;;;4.93;2.60;;;;;;;18.30;53.27;100038.38;7630784;32;39815;-70
2022/09/04 00:15:42;;;;;;;3.22;2.25;;;;;;;18.25;53.59;100042.09;7631176;32;38004;-69
2022/09/04 00:20:02;;;;;;;4.45;2.62;;;;;;;18.44;52.74;100050.13;7617744;32;37006;-69
2022/09/04 00:24:21;;;;;;;3.42;2.28;;;;;;;18.44;52.53;100046.53;7601467;32;39521;-70
2022/09/04 00:28:44;;;;;;;5.25;2.37;;;;;;;18.44;52.59;100041.03;7620884;32;40812;-69
2022/09/04 00:33:14;;;;;;;3.30;1.85;;;;;;;18.33;52.89;100049.63;7631337;32;38091;-69
2022/09/04 00:37:44;;;;;;;6.10;2.15;;;;;;;18.55;51.98;100045.94;7628637;32;36850;-70
2022/09/04 00:42:21;;;;;;;6.22;2.20;;;;;;;18.56;52.53;100050.34;7625425;32;40126;-69
2022/09/04 00:47:01;;;;;;;8.05;2.50;;;;;;;18.44;52.89;100047.37;7631208;32;39811;-69
2022/09/04 00:51:54;;;;;;;7.12;2.80;;;;;;;18.37;54.77;100055.31;7607005;32;38490;-69
2022/09/04 00:56:14;;;;;;;4.37;2.45;;;;;;;18.39;57.26;100059.38;7631038;32;37892;-68
2022/09/04 01:00:30;;;;;;;5.62;2.60;;;;;;;18.56;55.89;100058.63;7628257;32;39369;-70
2022/09/04 01:05:00;;;;;;;5.53;2.53;;;;;;;18.45;55.91;100056.47;7630770;32;40847;-70
2022/09/04 01:09:36;;;;;;;4.53;2.55;;;;;;;18.35;56.05;100055.62;7623838;32;37855;-70
2022/09/04 01:14:20;;;;;;;5.07;2.35;;;;;;;18.56;55.51;100063.34;7598739;32;37036;-69
2022/09/04 01:19:35;;;;;;;4.40;2.58;;;;;;;18.66;54.58;100064.97;7604718;32;40107;-69
2022/09/04 01:24:17;;;;;;;6.18;2.50;;;;;;;18.76;54.14;100061.94;7519700;32;38456;-70
2022/09/04 01:29:10;;;;;;;4.05;2.45;;;;;;;18.58;55.08;100070.16;7607220;32;37682;-69
2022/09/04 01:33:53;;;;;;;3.15;2.33;;;;;;;18.81;53.94;100069.28;7607601;32;37826;-69
2022/09/04 01:38:24;;;;;;;;;;;;;;;18.77;53.96;100075.44;7602944;32;39501;-69
2022/09/04 01:43:00;;;;;;;4.85;2.25;;;;;;;18.76;53.98;100068.28;7607562;32;41104;-69
2022/09/04 01:47:42;;;;;;;2.65;2.17;;;;;;;18.69;53.37;100084.50;7607225;32;38842;-69
2022/09/04 01:52:10;;;;;;;5.50;2.08;;;;;;;18.83;51.98;100089.94;7601326;32;37038;-70
2022/09/04 01:56:54;;;;;;;3.97;2.40;;;;;;;18.87;51.90;100085.41;7607858;32;39292;-69
2022/09/04 02:01:20;;;;;;;2.97;2.17;;;;;;;18.74;53.24;100092.63;7615361;32;39869;-69
2022/09/04 02:05:48;;;;;;;5.12;2.30;;;;;;;18.89;52.21;100096.12;7630938;32;38722;-69
2022/09/04 02:10:32;;;;;;;3.55;2.42;;;;;;;18.92;51.79;100098.25;7627781;32;37094;-69
2022/09/04 02:14:59;;;;;;;8.52;2.53;;;;;;;18.86;52.20;100082.97;7616542;32;39434;-69
2022/09/04 02:19:35;;;;;;;3.85;2.65;;;;;;;18.45;53.35;100084.06;7607056;32;40885;-69
2022/09/04 02:24:11;;;;;;;7.03;2.72;;;;;;;18.76;52.37;100079.34;7607071;32;38009;-69
2022/09/04 02:28:32;;;;;;;5.40;2.55;;;;;;;19.01;51.76;100082.53;7607005;32;36758;-70
2022/09/04 02:33:14;;;;;;;3.72;2.30;;;;;;;18.88;51.93;100086.22;7606878;32;39967;-70
2022/09/04 02:37:48;;;;;;;3.75;2.30;;;;;;;18.89;52.17;100087.84;7583646;32;39517;-69
2022/09/04 02:42:09;;;;;;;3.78;2.53;;;;;;;18.87;52.23;100084.59;7606774;32;38704;-70
2022/09/04 02:47:00;;;;;;;5.07;2.45;;;;;;;19.00;51.89;100086.41;7604017;32;37029;-69
2022/09/04 02:51:37;;;;;;;4.90;2.40;;;;;;;19.12;51.49;100083.81;7609184;32;39314;-69
2022/09/04 02:56:21;;;;;;;4.97;2.62;;;;;;;19.02;51.77;100089.66;7626238;32;40701;-70
2022/09/04 03:00:56;;;;;;;2.90;2.17;;;;;;;19.01;51.84;100087.25;7629482;32;39190;-69
2022/09/04 03:05:21;;;;;;;4.28;2.28;;;;;;;18.75;52.31;100087.94;7606597;32;37012;-70
2022/09/04 03:09:54;;;;;;;3.58;2.22;;;;;;;18.80;52.29;100084.19;7606574;32;38976;-70
2022/09/04 03:14:23;;;;;;;3.30;2.33;;;;;;;18.70;52.70;100079.81;7601526;32;40906;-70
2022/09/04 03:18:59;;;;;;;7.37;2.47;;;;;;;18.36;53.86;100093.12;7606319;32;38509;-69
2022/09/04 03:23:35;;;;;;;9.23;2.60;;;;;;;18.61;53.25;100089.97;7601949;32;36748;-70
2022/09/04 03:27:51;;;;;;;6.25;2.20;;;;;;;18.49;53.56;100096.09;7599684;32;39587;-70
2022/09/04 03:32:24;;;;;;;3.45;2.30;;;;;;;18.61;53.25;100099.09;7606101;32;39657;-69
2022/09/04 03:37:21;;;;;;;2.47;2.05;;;;;;;18.67;53.19;100097.81;7604416;32;38119;-70
2022/09/04 03:41:48;;;;;;;6.22;2.30;;;;;;;18.71;52.84;100096.06;7606173;32;37045;-70
2022/09/04 03:46:41;;;;;;;3.80;1.85;;;;;;;18.56;53.21;100110.28;7624022;32;39726;-70
2022/09/04 03:51:03;;;;;;;3.63;2.03;;;;;;;18.57;53.08;100121.00;7616317;32;40910;-70
2022/09/04 03:55:23;;;;;;;4.15;2.20;;;;;;;18.32;53.73;100127.19;7605940;32;37981;-69
2022/09/04 03:59:53;;;;;;;3.62;2.05;;;;;;;18.42;53.76;100120.56;7604055;32;36842;-70
2022/09/04 04:04:14;;;;;;;3.12;1.92;;;;;;;18.19;53.99;100132.44;7605920;32;40190;-70
2022/09/04 04:08:55;;;;;;;3.83;2.10;;;;;;;18.45;53.38;100131.81;7605703;32;40716;-69
2022/09/04 04:13:37;;;;;;;3.40;1.87;;;;;;;18.63;53.15;100129.16;7605691;32;38822;-69
2022/09/04 04:18:38;;;;;;;2.78;1.87;;;;;;;18.41;53.65;100144.63;7599269;32;37268;-69
2022/09/04 04:23:21;;;;;;;2.42;1.87;;;;;;;18.59;53.22;100151.03;7590681;32;41912;-70
2022/09/04 04:27:52;;;;;;;4.70;2.03;;;;;;;18.51;53.29;100160.09;7605501;32;40830;-69
2022/09/04 04:32:24;;;;;;;4.12;2.03;;;;;;;18.53;53.20;100155.06;7605218;32;38085;-69
2022/09/04 04:36:52;;;;;;;3.22;1.77;;;;;;;18.34;53.78;100161.63;7605421;32;37226;-70
2022/09/04 04:41:23;;;;;;;3.78;1.90;;;;;;;18.45;53.29;100167.69;7605506;32;39478;-70
2022/09/04 04:46:14;;;;;;;3.35;2.10;;;;;;;18.23;54.28;100174.06;7605182;32;40850;-70
2022/09/04 04:50:53;;;;;;;5.43;2.10;;;;;;;18.18;54.42;100179.69;7605949;32;37949;-70
2022/09/04 04:55:23;;;;;;;3.85;1.75;;;;;;;18.45;53.26;100186.19;7600266;32;37023;-70
2022/09/04 04:59:45;;;;;;;2.20;1.73;;;;;;;18.38;53.61;100194.91;7603322;32;40014;-71
2022/09/04 05:04:24;;;;;;;1.40;1.30;;;;;;;18.41;53.24;100188.78;7603146;32;40798;-69
2022/09/04 05:08:56;;;;;;;7.95;1.90;;;;;;;18.62;52.87;100191.81;7605771;32;38771;-70
2022/09/04 05:13:22;;;;;;;4.20;2.00;;;;;;;18.67;52.84;100191.69;7600227;32;37723;-69
2022/09/04 05:18:00;;;;;;;2.30;1.50;;;;;;;18.78;52.49;100197.75;7604709;32;40114;-69
2022/09/04 05:22:45;;;;;;;2.85;1.77;;;;;;;18.66;53.23;100208.56;7616708;32;39945;-70
2022/09/04 05:27:28;;;;;;;3.55;1.85;;;;;;;18.33;54.04;100209.69;7624115;32;37568;-70
2022/09/04 05:31:54;;;;;;;;;;;;;;;18.69;52.65;100213.47;7629449;32;37130;-70
2022/09/04 05:36:36;;;;;;;3.10;1.95;;;;;;;18.82;52.05;100220.06;7630485;32;39523;-70
2022/09/04 05:41:06;;;;;;;2.35;1.58;;;;;;;18.71;52.40;100233.28;7611716;32;40756;-69
2022/09/04 05:45:40;;;;;;;3.28;1.70;;;;;;;18.90;52.41;100220.13;7603955;32;38684;-69
2022/09/04 05:50:17;;;;;;;3.08;1.70;;;;;;;18.91;52.43;100230.03;7597619;32;37092;-78
2022/09/04 05:54:47;;;;;;;3.40;1.73;;;;;;;18.86;54.08;100226.59;7605654;32;39730;-76
2022/09/04 05:59:22;;;;;;;2.70;1.70;;;;;;;19.09;53.86;100230.94;7615314;32;40043;-69
2022/09/04 06:03:50;;;;;;;2.40;1.50;;;;;;;19.44;51.69;100225.53;7603391;32;38775;-69
2022/09/04 06:08:44;;;;;;;2.17;1.60;;;;;;;19.36;51.01;100233.81;7603429;32;37828;-69
2022/09/04 06:13:12;;;;;;;4.90;1.83;;;;;;;19.61;50.53;100229.47;7605649;32;39500;-69
2022/09/04 06:17:50;;;;;;;2.87;1.67;;;;;;;19.46;51.11;100233.50;7613538;32;39910;-68
2022/09/04 06:22:28;;;;;;;3.17;1.67;;;;;;;19.66;50.24;100229.31;7607196;32;38787;-68
2022/09/04 06:26:50;;;;;;;3.97;1.50;;;;;;;19.63;50.79;100232.75;7620690;32;37804;-69
2022/09/04 06:31:18;;;;;;;5.37;1.50;;;;;;;19.87;49.80;100227.59;7629310;32;39434;-70
2022/09/04 06:35:59;;;;;;;2.35;1.80;;;;;;;19.79;50.25;100230.37;7633032;32;39921;-70
2022/09/04 06:40:28;;;;;;;5.05;1.90;;;;;;;19.84;50.22;100230.22;7623560;32;38525;-70
2022/09/04 06:45:15;;;;;;;2.12;1.50;;;;;;;19.82;49.93;100235.25;7584235;32;37746;-71
2022/09/04 06:50:04;;;;;;;2.87;1.62;;;;;;;19.71;50.96;100234.69;7629554;32;39611;-69
2022/09/04 06:54:38;;;;;;;2.62;2.00;;;;;;;19.62;51.26;100242.16;7621261;32;40087;-70
2022/09/04 06:59:10;;;;;;;2.33;1.60;;;;;;;19.64;50.91;100248.19;7632700;32;37995;-72
2022/09/04 07:03:32;;;;;;;1.85;1.60;;;;;;;19.93;50.92;100255.13;7620729;32;37656;-72
2022/09/04 07:08:19;;;;;;;2.58;1.70;;;;;;;19.81;51.57;100255.75;7627752;32;39292;-72
2022/09/04 07:13:03;;;;;;;3.25;2.17;;;;;;;19.67;53.08;100261.37;7600574;32;41181;-73
2022/09/04 07:18:03;;;;;;;1.98;1.80;;;;;;;19.55;53.00;100272.25;7596876;32;38788;-71
2022/09/04 07:22:21;;;;;;;2.67;2.03;;;;;;;19.49;54.59;100272.41;7579686;32;38214;-72
2022/09/04 07:27:25;;;;;;;2.08;1.85;;;;;;;19.41;55.95;100267.63;7600392;32;39414;-71
2022/09/04 07:31:58;;;;;;;3.15;1.85;;;;;;;19.20;56.82;100280.41;7589711;32;39890;-72
2022/09/04 07:36:27;;;;;;;2.72;2.00;;;;;;;19.03;57.97;100276.41;7601282;32;38490;-71
2022/09/04 07:41:37;;;;;;;2.58;1.90;;;;;;;18.94;58.45;100289.38;7606210;32;36974;-72
2022/09/04 07:46:05;;;;;;;5.50;2.03;;;;;;;19.06;57.89;100297.09;7598631;32;39079;-72
2022/09/04 07:50:24;;;;;;;3.22;2.03;;;;;;;18.65;59.63;100298.88;7601394;32;40576;-72
2022/09/04 07:55:06;;;;;;;3.22;1.98;;;;;;;18.65;59.47;100298.88;7606144;32;37810;-72
2022/09/04 07:59:33;;;;;;;3.22;2.00;;;;;;;18.70;59.31;100301.53;7606032;32;37003;-72
2022/09/04 08:04:14;;;;;;;2.30;2.10;;;;;;;18.63;60.17;100295.63;7606164;32;39131;-72
2022/09/04 08:08:51;;;;;;;3.65;2.30;;;;;;;18.58;60.52;100310.38;7576695;33;40837;-73
2022/09/04 08:13:26;;;;;;;6.78;2.40;;;;;;;18.79;60.02;100312.63;7579584;33;37942;-73
2022/09/04 08:17:55;;;;;;;4.43;2.40;;;;;;;18.75;60.09;100319.94;7579937;33;37872;-72
2022/09/04 08:22:18;;;;;;;4.47;2.37;;;;;;;18.71;60.18;100318.91;7579876;33;39985;-75
2022/09/04 08:26:37;;;;;;;;;;;;;;;18.77;60.70;100328.72;7597699;32;39949;-72
2022/09/04 08:31:11;;;;;;;4.93;2.78;;;;;;;18.92;60.52;100347.69;7631692;32;38295;-70
2022/09/04 08:35:47;;;;;;;4.12;2.50;;;;;;;18.51;61.48;100347.84;7620047;32;36836;-73
2022/09/04 08:40:22;;;;;;;3.17;2.17;;;;;;;19.01;60.18;100342.22;7613955;32;40133;-72
2022/09/04 08:45:10;;;;;;;4.62;2.33;;;;;;;19.29;58.97;100339.31;7592665;32;40832;-71
2022/09/04 08:49:38;;;;;;;6.15;2.60;;;;;;;19.56;56.92;100341.06;7605164;32;38046;-71
2022/09/04 08:54:30;;;;;;;4.20;2.42;;;;;;;19.45;58.18;100343.28;7605304;32;37751;-71
2022/09/04 08:59:18;;;;;;;3.85;2.30;;;;;;;19.86;56.56;100341.34;7605294;32;40184;-71
2022/09/04 09:03:46;;;;;;;3.55;2.40;;;;;;;19.80;58.69;100346.22;7605068;32;39938;-71
2022/09/04 09:08:11;;;;;;;6.10;2.37;;;;;;;20.19;57.87;100341.75;7629292;32;38014;-71
2022/09/04 09:12:50;;;;;;;4.03;2.28;;;;;;;20.16;57.83;100342.41;7617411;32;36970;-71
2022/09/04 09:17:23;;;;;;;4.30;2.40;;;;;;;20.31;57.98;100343.88;7606453;32;39514;-72
2022/09/04 09:22:14;;;;;;;3.83;2.30;;;;;;;20.52;56.78;100341.28;7602991;32;40560;-71
2022/09/04 09:26:54;;;;;;;3.72;2.10;;;;;;;20.80;57.40;100352.09;7601001;32;38745;-71
2022/09/04 09:31:23;;;;;;;2.60;2.20;;;;;;;20.75;56.92;100343.94;7603523;32;36616;-72
2022/09/04 09:35:56;;;;;;;2.20;1.95;;;;;;;20.60;57.62;100348.78;7620685;32;219351;-71
2022/09/04 09:40:27;;;;;;;2.22;1.65;;;;;;;20.73;54.67;100362.84;7630214;32;40019;-71
2022/09/04 09:45:05;;;;;;;4.07;2.30;;;;;;;20.91;54.49;100353.38;7617517;32;38090;-71
2022/09/04 09:49:59;;;;;;;2.47;2.00;;;;;;;20.53;56.57;100348.47;7633253;32;37123;-71
2022/09/04 09:54:49;;;;;;;4.55;2.37;;;;;;;20.92;55.36;100343.94;7633579;32;39072;-71
2022/09/04 09:59:33;;;;;;;2.85;1.92;;;;;;;21.23;53.30;100353.97;7627679;32;41244;-71
2022/09/04 10:04:32;;;;;;;6.15;2.25;;;;;;;21.15;54.67;100352.03;7607037;32;37632;-71
2022/09/04 10:08:58;;;;;;;4.10;2.25;;;;;;;21.36;52.56;100352.94;7580129;32;36688;-71
2022/09/04 10:13:21;;;;;;;5.70;2.47;;;;;;;21.41;53.37;100354.75;7607379;32;40087;-73
2022/09/04 10:17:46;;;;;;;4.20;2.60;;;;;;;21.76;53.41;100347.09;7607618;32;39271;-72
2022/09/04 10:22:40;;;;;;;3.45;2.30;;;;;;;21.82;52.78;100342.19;7607035;32;38024;-72
2022/09/04 10:27:13;;;;;;;;;;;;;;;21.47;53.43;100350.69;7607357;32;36793;-71
2022/09/04 10:31:55;;;;;;;5.05;2.40;;;;;;;21.64;51.18;100351.75;7625651;32;39777;-71
2022/09/04 10:36:26;;;;;;;6.70;3.00;;;;;;;21.60;52.99;100353.56;7633154;32;39989;-71
2022/09/04 10:41:20;;;;;;;4.80;2.55;;;;;;;21.81;51.92;100348.87;7632453;32;37941;-71
2022/09/04 10:45:45;;;;;;;4.95;3.05;;;;;;;21.79;53.20;100353.16;7618567;32;38000;-72
2022/09/04 10:50:30;;;;;;;5.65;2.75;;;;;;;21.80;54.33;100349.22;7596368;32;40107;-72
2022/09/04 10:55:01;;;;;;;4.00;2.78;;;;;;;22.15;53.50;100352.63;7581832;32;39972;-72
2022/09/04 10:59:29;;;;;;;5.60;2.75;;;;;;;22.18;52.92;100353.91;7611210;32;37637;-72
2022/09/04 11:04:25;;;;;;;4.87;2.80;;;;;;;22.36;52.69;100355.44;7629735;32;37191;-71
2022/09/04 11:09:03;;;;;;;4.25;2.92;;;;;;;22.58;50.18;100345.97;7621978;32;39571;-72
2022/09/04 11:13:41;;;;;;;6.20;2.85;;;;;;;22.41;52.07;100352.47;7613978;32;40069;-71
2022/09/04 11:18:48;;;;;;;9.85;3.00;;;;;;;22.23;52.55;100357.31;7632576;32;38044;-72
2022/09/04 11:23:31;;;;;;;7.20;3.17;;;;;;;22.73;50.60;100352.06;7621980;32;37113;-72
2022/09/04 11:28:02;;;;;;;5.22;3.03;;;;;;;22.58;51.09;100356.28;7591303;32;39183;-72
2022/09/04 11:32:40;;;;;;;5.65;3.12;;;;;;;22.75;50.37;100345.03;7616322;32;39874;-72
2022/09/04 11:37:40;;;;;;;6.18;3.70;;;;;;;22.67;50.43;100348.69;7608270;32;38570;-71
2022/09/04 11:42:08;;;;;;;14.27;3.45;;;;;;;22.76;48.88;100338.28;7622007;32;37385;-72
2022/09/04 11:46:58;;;;;;;6.87;3.25;;;;;;;22.85;48.75;100347.38;7604949;32;39894;-71
2022/09/04 11:51:35;;;;;;;7.00;2.78;;;;;;;22.75;49.82;100350.56;7596773;32;40087;-71
2022/09/04 11:56:11;;;;;;;4.43;3.12;;;;;;;22.75;51.78;100361.69;7592462;32;38066;-71
2022/09/04 12:01:02;;;;;;;8.98;3.03;;;;;;;22.63;50.14;100364.41;7628387;32;37208;-71
2022/09/04 12:05:51;;;;;;;5.00;3.12;;;;;;;22.67;50.69;100354.25;7576830;32;40033;-71
2022/09/04 12:10:20;;;;;;;6.10;3.07;;;;;;;22.86;49.93;100353.75;7612224;32;39650;-71
2022/09/04 12:15:11;;;;;;;4.47;2.90;;;;;;;22.66;50.51;100349.81;7630673;32;38589;-71
2022/09/04 12:19:38;;;;;;;5.53;3.47;;;;;;;22.74;51.34;100346.16;7630775;32;37407;-72
2022/09/04 12:24:12;;;;;;;6.18;3.45;;;;;;;22.60;52.61;100345.63;7623320;32;39469;-72
2022/09/04 12:28:43;;;;;;;7.90;3.60;;;;;;;22.63;52.45;100350.53;7580089;32;39990;-73
2022/09/04 12:33:33;;;;;;;5.20;3.42;;;;;;;22.57;53.64;100341.56;7625824;32;38848;-72
2022/09/04 12:38:08;;;;;;;5.70;3.53;;;;;;;22.59;53.71;100347.59;7605652;32;37534;-71
2022/09/04 12:42:41;;;;;;;8.32;3.60;;;;;;;22.69;51.43;100340.81;7629248;32;39396;-71
2022/09/04 12:47:15;;;;;;;;;;;;;;;22.48;51.44;100336.06;7631057;32;40560;-73
2022/09/04 12:52:17;;;;;;;7.57;4.15;;;;;;;22.72;52.68;100340.12;7622829;32;38073;-73
2022/09/04 12:57:05;;;;;;;6.68;4.05;;;;;;;22.66;53.40;100339.53;7611118;32;37911;-75
2022/09/04 13:01:55;;;;;;;8.75;3.60;;;;;;;22.48;53.71;100347.19;7625210;32;39823;-75
2022/09/04 13:06:18;;;;;;;5.28;3.83;;;;;;;22.56;53.95;100341.91;7608336;32;40945;-70
2022/09/04 13:11:02;;;;;;;6.60;3.50;;;;;;;22.55;53.24;100329.97;7624651;32;37982;-71
2022/09/04 13:15:36;;;;;;;5.47;3.47;;;;;;;22.54;55.11;100327.53;7627648;32;37296;-71
2022/09/04 13:20:14;;;;;;;6.25;3.70;;;;;;;22.55;54.75;100329.19;7620736;32;39273;-71
2022/09/04 13:24:49;;;;;;;5.03;3.25;;;;;;;22.61;53.82;100331.41;7632752;32;40129;-71
2022/09/04 13:29:15;;;;;;;5.05;3.40;;;;;;;22.97;55.25;100320.75;7631361;32;38051;-71
2022/09/04 13:33:50;;;;;;;5.20;3.00;;;;;;;23.18;52.37;100309.59;7607756;32;37034;-71
2022/09/04 13:38:28;;;;;;;5.57;3.53;;;;;;;23.32;52.67;100307.34;7606761;32;40137;-71
2022/09/04 13:43:09;;;;;;;5.47;3.22;;;;;;;23.57;52.82;100299.81;7620803;32;40839;-70
2022/09/04 13:47:28;;;;;;;5.70;3.20;;;;;;;23.52;52.61;100294.47;7623264;32;38044;-71
2022/09/04 13:51:58;;;;;;;5.30;3.08;;;;;;;23.94;51.38;100310.97;7617430;32;36955;-71
2022/09/04 13:56:21;;;;;;;5.00;3.00;;;;;;;23.96;51.76;100305.06;7621321;32;39390;-70
2022/09/04 14:00:44;;;;;;;7.60;3.20;;;;;;;23.79;50.64;100301.31;7620832;32;40831;-71
2022/09/04 14:05:07;;;;;;;;;;;;;;;24.02;50.89;100305.63;7633631;32;38065;-71
2022/09/04 14:09:23;;;;;;;5.43;3.58;;;;;;;23.42;51.84;100311.63;7633680;32;36650;-70
2022/09/04 14:13:57;;;;;;;8.50;3.67;;;;;;;23.38;52.18;100305.94;7633329;32;39932;-71
2022/09/04 14:18:35;;;;;;;7.85;3.53;;;;;;;23.04;53.31;100296.00;7615307;32;40504;-70
2022/09/04 14:23:10;;;;;;;5.95;3.58;;;;;;;23.39;52.60;100303.97;7596929;32;38024;-70
2022/09/04 14:27:45;;;;;;;5.22;3.62;;;;;;;22.98;53.28;100309.31;7594900;32;37256;-71
2022/09/04 14:32:09;;;;;;;8.48;3.40;;;;;;;22.52;53.55;100311.19;7606422;32;39308;-71
2022/09/04 14:36:55;;;;;;;6.53;3.78;;;;;;;22.52;53.45;100302.06;7607096;32;40935;-70
2022/09/04 14:41:30;;;;;;;5.87;3.85;;;;;;;22.73;53.15;100311.19;7607009;32;37726;-71
2022/09/04 14:46:05;;;;;;;6.28;3.35;;;;;;;23.03;52.52;100308.28;7606962;32;37196;-71
2022/09/04 14:50:29;;;;;;;5.18;3.60;;;;;;;23.21;53.42;100309.72;7594637;32;39180;-71
2022/09/04 14:54:50;;;;;;;6.25;3.55;;;;;;;22.43;53.67;100311.28;7615464;32;40001;-70
2022/09/04 14:59:22;;;;;;;10.90;4.20;;;;;;;22.81;53.41;100318.63;7623603;32;38658;-71
2022/09/04 15:04:33;;;;;;;6.47;3.35;;;;;;;22.86;52.87;100317.59;7594269;32;37835;-70
2022/09/04 15:08:49;;;;;;;5.82;3.60;;;;;;;23.31;51.77;100311.25;7540459;32;39524;-72
2022/09/04 15:13:08;;;;;;;6.32;3.90;;;;;;;23.24;51.23;100317.38;7606394;32;40588;-71
2022/09/04 15:17:27;;;;;;;6.22;3.22;;;;;;;23.26;50.79;100311.47;7606310;32;38791;-71
2022/09/04 15:22:06;;;;;;;8.25;3.90;;;;;;;23.18;51.42;100323.50;7595647;32;37342;-71
2022/09/04 15:26:30;;;;;;;6.03;3.75;;;;;;;23.23;50.96;100318.56;7598199;32;39425;-71
2022/09/04 15:31:01;;;;;;;7.60;3.80;;;;;;;23.17;50.63;100311.59;7605879;32;40026;-71
2022/09/04 15:35:26;;;;;;;7.87;3.90;;;;;;;23.25;51.16;100319.03;7593115;32;38699;-72
2022/09/04 15:40:29;;;;;;;7.78;3.67;;;;;;;22.96;51.77;100319.16;7606001;32;35647;-71
2022/09/04 15:44:46;;;;;;;6.18;3.42;;;;;;;23.30;50.91;100309.66;7620650;32;40000;-71
2022/09/04 15:49:31;;;;;;;7.43;3.72;;;;;;;23.09;51.74;100315.25;7618471;32;40721;-71
2022/09/04 15:54:20;;;;;;;5.82;3.83;;;;;;;23.01;51.75;100330.88;7619783;32;38578;-71
2022/09/04 15:58:40;;;;;;;7.53;3.70;;;;;;;23.00;53.34;100318.09;7631841;32;37197;-72
2022/09/04 16:03:15;;;;;;;6.28;3.35;;;;;;;23.12;51.76;100324.91;7608755;32;39328;-73
2022/09/04 16:08:15;;;;;;;5.10;3.50;;;;;;;23.24;51.63;100320.16;7628924;32;40531;-72
2022/09/04 16:12:48;;;;;;;7.72;3.90;;;;;;;23.12;52.67;100320.16;7599860;32;38526;-73
2022/09/04 16:17:15;;;;;;;4.72;3.35;;;;;;;23.17;52.51;100306.03;7619530;32;36970;-72
2022/09/04 16:21:49;;;;;;;6.12;3.95;;;;;;;23.07;52.78;100314.81;7616602;32;39440;-72
2022/09/04 16:26:11;;;;;;;4.82;3.45;;;;;;;23.11;52.85;100321.31;7631603;32;39685;-72
2022/09/04 16:30:43;;;;;;;6.13;3.70;;;;;;;23.09;53.17;100320.81;7631319;32;38453;-72
2022/09/04 16:35:03;;;;;;;7.87;3.70;;;;;;;23.04;53.70;100313.50;7631528;32;37529;-72
2022/09/04 16:39:36;;;;;;;6.93;3.90;;;;;;;22.94;54.55;100308.37;7618343;32;39902;-72
2022/09/04 16:44:29;;;;;;;6.15;3.58;;;;;;;22.97;54.07;100298.53;7631431;32;40930;-72
2022/09/04 16:48:56;;;;;;;;;;;;;;;22.77;54.04;100305.78;7610870;32;38733;-72
2022/09/04 16:53:32;;;;;;;7.45;3.67;;;;;;;22.76;53.86;100304.13;7631557;32;37102;-71
2022/09/04 16:57:52;;;;;;;6.40;3.45;;;;;;;22.54;54.77;100302.53;7619382;32;39351;-72
2022/09/04 17:02:30;;;;;;;4.87;3.17;;;;;;;22.45;55.16;100306.19;7630846;32;40703;-70
2022/09/04 17:07:06;;;;;;;7.07;3.87;;;;;;;22.44;55.19;100310.12;7631080;32;38017;-71
2022/09/04 17:11:25;;;;;;;6.72;3.90;;;;;;;21.99;56.40;100316.31;7630987;32;37100;-71
2022/09/04 17:16:07;;;;;;;7.25;4.10;;;;;;;21.84;56.99;100314.13;7630972;32;39804;-72
2022/09/04 17:20:27;;;;;;;10.07;4.03;;;;;;;21.83;57.08;100318.84;7600445;32;40589;-76
2022/09/04 17:25:51;;;;;;;7.80;4.10;;;;;;;21.83;56.92;100326.34;7604131;32;38214;-72
2022/09/04 17:30:52;;;;;;;11.43;3.92;;;;;;;21.64;57.64;100335.09;7569848;32;37388;-72
2022/09/04 17:35:36;;;;;;;7.22;3.95;;;;;;;21.44;57.99;100343.00;7593423;32;38345;-73
2022/09/04 17:40:13;;;;;;;;;;;;;;;21.28;58.57;100358.53;7603780;32;41234;-73
2022/09/04 17:45:12;;;;;;;5.60;4.05;;;;;;;21.25;58.16;100368.31;7604302;32;39059;-73
2022/09/04 17:49:30;;;;;;;7.32;4.28;;;;;;;20.80;59.38;100374.25;7589144;32;36872;-73
2022/09/04 17:53:54;;;;;;;7.00;4.22;;;;;;;20.69;59.57;100378.50;7591073;32;39402;-73
2022/09/04 17:58:29;;;;;;;4.85;3.60;;;;;;;20.57;59.79;100392.94;7603771;32;40729;-72
2022/09/04 18:02:57;;;;;;;7.60;4.30;;;;;;;20.50;59.85;100398.97;7604123;32;36573;-74
2022/09/04 18:07:13;;;;;;;7.53;3.70;;;;;;;20.57;59.68;100407.59;7601192;32;37185;-74
2022/09/04 18:12:02;;;;;;;8.77;4.45;;;;;;;20.58;59.33;100411.22;7604092;32;39625;-74
2022/09/04 18:16:43;;;;;;;6.37;4.00;;;;;;;20.32;59.88;100414.75;7606787;32;39566;-74
2022/09/04 18:21:56;;;;;;;8.00;4.35;;;;;;;20.61;58.61;100425.22;7607094;32;38004;-75
2022/09/04 18:26:48;;;;;;;6.07;3.87;;;;;;;20.57;58.89;100431.72;7595887;32;38625;-75
2022/09/04 18:31:19;;;;;;;6.30;4.03;;;;;;;20.32;59.90;100436.91;7594573;32;38908;-74
2022/09/04 18:36:10;;;;;;;7.05;3.60;;;;;;;20.51;59.12;100439.38;7602109;32;40100;-75
2022/09/04 18:40:56;;;;;;;9.25;4.50;;;;;;;20.12;59.87;100449.34;7580574;33;38540;-75
2022/09/04 18:45:40;;;;;;;5.90;3.78;;;;;;;19.87;60.87;100462.78;7582301;32;37491;-75
2022/09/04 18:50:24;;;;;;;5.45;3.70;;;;;;;19.97;60.28;100466.38;7589027;32;40621;-75
2022/09/04 18:55:07;;;;;;;6.03;3.62;;;;;;;19.84;60.58;100474.47;7594473;32;40061;-74
2022/09/04 18:59:42;;;;;;;7.80;4.30;;;;;;;19.84;60.38;100466.16;7585966;32;38801;-74
2022/09/04 19:04:19;;;;;;;7.25;4.22;;;;;;;19.67;60.99;100472.38;7578052;32;37128;-73
2022/09/04 19:08:44;;;;;;;6.90;3.97;;;;;;;19.64;61.14;100473.00;7590104;32;39063;-73
2022/09/04 19:13:13;;;;;;;5.60;3.95;;;;;;;19.61;60.99;100468.13;7591387;32;39915;-73
2022/09/04 19:17:37;;;;;;;6.53;3.87;;;;;;;19.74;60.34;100460.91;7588965;32;38037;-73
2022/09/04 19:22:24;;;;;;;7.32;3.83;;;;;;;19.92;59.54;100472.91;7589435;32;36749;-73
2022/09/04 19:26:55;;;;;;;5.22;3.60;;;;;;;19.67;60.17;100472.38;7578855;32;39860;-74
2022/09/04 19:31:23;;;;;;;6.50;4.12;;;;;;;19.74;59.97;100483.03;7588918;32;40602;-72
2022/09/04 19:35:59;;;;;;;6.60;3.70;;;;;;;19.74;59.59;100477.50;7586692;32;38081;-73
2022/09/04 19:41:07;;;;;;;8.10;3.42;;;;;;;19.75;59.71;100490.22;7589786;32;36750;-73
2022/09/04 19:46:08;;;;;;;7.57;3.70;;;;;;;19.63;59.78;100487.19;7577507;32;40305;-73
2022/09/04 19:51:08;;;;;;;7.93;4.05;;;;;;;19.50;60.31;100489.69;7590752;32;39640;-73
2022/09/04 19:55:54;;;;;;;8.75;3.85;;;;;;;19.05;61.82;100478.63;7583356;32;38339;-74
2022/09/04 20:00:26;;;;;;;7.07;4.40;;;;;;;19.26;61.28;100478.13;7577631;32;38062;-73
2022/09/04 20:05:04;;;;;;;6.30;3.55;;;;;;;19.03;62.36;100478.13;7582031;32;39443;-73
2022/09/04 20:09:31;;;;;;;5.78;3.50;;;;;;;18.99;62.58;100468.00;7576552;32;39073;-73
2022/09/04 20:13:59;;;;;;;8.32;4.00;;;;;;;18.84;63.01;100464.47;7590056;32;38168;-73
2022/09/04 20:18:36;;;;;;;4.55;3.55;;;;;;;19.14;61.83;100465.72;7576618;32;37038;-73
2022/09/04 20:23:02;;;;;;;8.85;4.25;;;;;;;18.99;62.24;100465.22;7575974;32;40228;-76
2022/09/04 20:27:48;;;;;;;8.13;4.25;;;;;;;18.92;62.35;100458.19;7588648;32;40203;-73
2022/09/04 20:32:13;;;;;;;7.12;3.90;;;;;;;18.87;62.70;100461.09;7594457;32;38038;-72
2022/09/04 20:36:33;;;;;;;6.07;3.80;;;;;;;18.93;62.37;100464.53;7601520;32;36402;-71
2022/09/04 20:40:56;;;;;;;6.07;4.03;;;;;;;18.85;62.21;100473.56;7594898;32;39438;-72
2022/09/04 20:45:26;;;;;;;6.30;3.75;;;;;;;18.86;62.14;100469.69;7602156;32;40012;-72
2022/09/04 20:50:30;;;;;;;6.75;4.10;;;;;;;18.79;62.36;100459.03;7604877;32;38210;-71
2022/09/04 20:55:25;;;;;;;6.45;3.85;;;;;;;18.62;62.91;100454.13;7599966;32;38486;-72
2022/09/04 20:59:59;;;;;;;9.25;3.62;;;;;;;18.56;63.27;100472.78;7605316;32;39405;-71
2022/09/04 21:05:18;;;;;;;8.43;4.40;;;;;;;18.68;63.05;100480.53;7602981;32;40281;-71
2022/09/04 21:09:47;;;;;;;7.32;3.75;;;;;;;18.35;63.64;100480.66;7600273;32;38787;-71
2022/09/04 21:14:28;;;;;;;6.35;4.00;;;;;;;18.76;61.51;100481.72;7627150;32;37052;-72
2022/09/04 21:19:01;;;;;;;5.37;3.80;;;;;;;18.61;61.69;100488.41;7608051;32;39319;-73
2022/09/04 21:24:14;;;;;;;5.82;3.83;;;;;;;18.65;61.41;100491.37;7604038;32;40371;-73
2022/09/04 21:28:54;;;;;;;5.62;3.72;;;;;;;18.71;61.01;100493.72;7583296;32;37647;-72